Time;durP1;ratioP1;P1;durP2;ratioP2;P2;SDS_P1;SDS_P2;PMS_P1;PMS_P2;Temp;Humidity;BMP_temperature;BMP_pressure;BME280_temperature;BME280_humidity;BME280_pressure;Samples;Min_cycle;Max_cycle;Signal;HPM_P1;HPM_P2
2022/06/17 00:00:18;;;;;;;18.58;9.02;;;22.60;54.50;;;;;;5011682;28;20018;-75
2022/06/17 00:02:44;;;;;;;17.25;9.60;;;22.60;54.50;;;;;;5014128;28;20030;-74
2022/06/17 00:05:10;;;;;;;16.70;9.18;;;22.60;54.60;;;;;;5011775;28;20034;-74
2022/06/17 00:07:36;;;;;;;16.55;9.20;;;22.60;54.60;;;;;;5012872;28;20024;-73
2022/06/17 00:10:03;;;;;;;17.08;9.18;;;22.50;54.60;;;;;;5011951;28;20117;-74
2022/06/17 00:12:29;;;;;;;16.70;8.90;;;22.60;54.70;;;;;;5013094;28;20075;-74
2022/06/17 00:15:13;;;;;;;14.32;9.07;;;22.60;54.70;;;;;;5013892;28;20033;-74
2022/06/17 00:17:46;;;;;;;17.58;9.70;;;22.60;54.80;;;;;;5011006;28;20109;-74
2022/06/17 00:20:16;;;;;;;15.88;8.55;;;22.60;54.80;;;;;;5012058;28;20112;-73
2022/06/17 00:22:42;;;;;;;;;;;22.60;54.90;;;;;;5013518;28;20068;-73
2022/06/17 00:25:35;;;;;;;13.77;8.63;;;22.60;54.90;;;;;;5011602;28;20020;-73
2022/06/17 00:28:02;;;;;;;16.08;8.75;;;22.60;54.90;;;;;;5023381;28;20113;-73
2022/06/17 00:30:32;;;;;;;14.30;8.85;;;22.60;55.00;;;;;;5011275;28;20108;-74
2022/06/17 00:33:02;;;;;;;13.57;8.18;;;22.60;55.20;;;;;;5013862;28;20148;-74
2022/06/17 00:35:33;;;;;;;14.60;8.68;;;22.60;55.30;;;;;;5011044;28;20033;-74
2022/06/17 00:38:01;;;;;;;14.20;8.30;;;22.60;55.30;;;;;;5010960;28;20149;-74
2022/06/17 00:40:31;;;;;;;20.50;9.40;;;22.60;55.40;;;;;;5010500;28;20030;-74
2022/06/17 00:43:02;;;;;;;16.17;8.18;;;22.60;55.40;;;;;;4994855;28;20113;-74
2022/06/17 00:45:50;;;;;;;16.02;8.45;;;22.60;55.30;;;;;;4992290;28;20027;-75
2022/06/17 00:48:27;;;;;;;18.40;9.27;;;22.60;55.40;;;;;;5010563;28;20057;-74
2022/06/17 00:51:09;;;;;;;15.90;8.65;;;22.60;55.40;;;;;;5010699;28;20496;-74
2022/06/17 00:53:46;;;;;;;14.18;8.20;;;22.60;55.50;;;;;;5011742;28;20560;-74
2022/06/17 00:56:29;;;;;;;14.95;8.32;;;22.60;55.60;;;;;;4991616;28;20463;-74
2022/06/17 00:59:00;;;;;;;14.48;8.18;;;22.60;55.70;;;;;;5011280;28;20112;-72
2022/06/17 01:01:32;;;;;;;15.50;8.13;;;22.60;55.30;;;;;;5010609;28;20029;-72
2022/06/17 01:04:01;;;;;;;14.75;7.90;;;22.60;55.20;;;;;;5012315;28;20050;-71
2022/06/17 01:06:34;;;;;;;15.20;8.50;;;22.50;55.20;;;;;;5010843;28;20064;-72
2022/06/17 01:12:09;;;;;;;12.73;7.15;;;22.50;55.40;;;;;;5010062;28;20057;-72
2022/06/17 01:14:36;;;;;;;13.68;7.55;;;22.50;55.40;;;;;;5011711;28;20032;-71
2022/06/17 01:17:02;;;;;;;14.88;7.60;;;22.50;55.50;;;;;;5010966;28;20040;-72
2022/06/17 01:19:38;;;;;;;15.55;8.20;;;22.50;55.40;;;;;;5009940;28;20108;-71
2022/06/17 01:22:26;;;;;;;15.18;7.05;;;22.50;55.40;;;;;;5011914;28;20513;-72
2022/06/17 01:25:15;;;;;;;15.40;7.60;;;22.40;55.30;;;;;;5010392;28;20387;-72
2022/06/17 01:27:45;;;;;;;14.57;7.18;;;22.50;55.20;;;;;;4993095;28;20026;-71
2022/06/17 01:30:19;;;;;;;;;;;22.50;55.20;;;;;;5011958;28;20557;-72
2022/06/17 01:32:53;;;;;;;10.88;6.40;;;22.50;55.10;;;;;;5011712;28;19917;-71
2022/06/17 01:35:23;;;;;;;14.27;6.40;;;22.50;55.20;;;;;;5011594;28;20032;-72
2022/06/17 01:37:50;;;;;;;12.43;6.05;;;22.50;54.90;;;;;;5010967;28;20060;-71
2022/06/17 01:40:18;;;;;;;13.82;6.07;;;22.50;54.80;;;;;;4977190;28;20103;-71
2022/06/17 01:42:45;;;;;;;13.18;6.72;;;22.50;54.70;;;;;;5010005;28;20029;-71
2022/06/17 01:45:12;;;;;;;12.00;6.95;;;22.50;54.70;;;;;;5010046;28;20038;-71
2022/06/17 01:47:41;;;;;;;12.18;5.55;;;22.50;54.80;;;;;;4995115;28;20051;-72
2022/06/17 01:50:19;;;;;;;11.43;5.63;;;22.40;54.70;;;;;;5009465;28;20037;-72
2022/06/17 01:52:56;;;;;;;15.73;5.80;;;22.40;54.40;;;;;;5011305;28;20559;-72
2022/06/17 01:55:26;;;;;;;9.32;5.10;;;22.50;54.70;;;;;;5007486;28;20033;-72
2022/06/17 01:58:06;;;;;;;12.88;4.93;;;22.40;54.40;;;;;;5010275;28;20637;-72
2022/06/17 02:00:35;;;;;;;9.93;5.07;;;22.40;54.50;;;;;;5003809;28;20041;-72
2022/06/17 02:03:12;;;;;;;9.93;5.10;;;22.40;54.60;;;;;;5005888;28;20059;-72
2022/06/17 02:05:42;;;;;;;14.88;5.57;;;22.40;54.50;;;;;;4991864;28;20026;-72
2022/06/17 02:08:08;;;;;;;10.00;5.07;;;22.40;54.50;;;;;;4992847;28;20029;-71
2022/06/17 02:10:38;;;;;;;13.90;5.28;;;22.40;54.40;;;;;;5007623;28;20093;-72
2022/06/17 02:13:05;;;;;;;8.52;4.30;;;22.40;54.40;;;;;;5009693;28;20030;-72
2022/06/17 02:15:46;;;;;;;8.48;4.35;;;22.40;54.30;;;;;;5009554;28;20025;-72
2022/06/17 02:18:33;;;;;;;7.43;4.22;;;22.40;54.30;;;;;;4997821;28;20033;-72
2022/06/17 02:21:09;;;;;;;6.57;3.65;;;22.40;54.30;;;;;;5009830;28;20021;-71
2022/06/17 02:23:35;;;;;;;10.10;4.18;;;22.40;54.10;;;;;;5009444;28;20403;-72
2022/06/17 02:26:02;;;;;;;10.20;3.50;;;22.40;54.20;;;;;;5006711;28;20026;-71
2022/06/17 02:28:30;;;;;;;8.23;4.00;;;22.40;54.10;;;;;;4992244;28;20029;-72
2022/06/17 02:30:59;;;;;;;7.00;3.60;;;22.40;54.10;;;;;;5009134;28;20014;-71
2022/06/17 02:33:31;;;;;;;8.88;4.00;;;22.40;54.10;;;;;;5010735;28;20112;-71
2022/06/17 02:36:03;;;;;;;6.85;3.55;;;22.40;53.90;;;;;;5010183;28;20030;-72
2022/06/17 02:38:32;;;;;;;5.65;3.00;;;22.40;54.00;;;;;;5008424;28;20026;-72
2022/06/17 02:41:06;;;;;;;5.30;3.33;;;22.50;54.50;;;;;;5009950;28;20109;-72
2022/06/17 02:43:42;;;;;;;7.35;3.38;;;22.40;53.90;;;;;;5011040;28;20034;-72
2022/06/17 02:46:15;;;;;;;5.93;2.95;;;22.50;54.00;;;;;;5009293;28;20021;-72
2022/06/17 02:49:05;;;;;;;7.40;3.20;;;22.40;53.80;;;;;;4992384;28;20027;-72
2022/06/17 02:51:36;;;;;;;5.90;3.00;;;22.40;53.80;;;;;;4989102;28;20030;-71
2022/06/17 02:54:04;;;;;;;5.88;3.30;;;22.40;53.80;;;;;;5009126;28;20115;-72
2022/06/17 02:56:32;;;;;;;4.78;2.80;;;22.40;53.80;;;;;;5008779;28;20034;-72
2022/06/17 02:59:03;;;;;;;8.52;3.10;;;22.40;53.80;;;;;;4993713;28;20108;-72
2022/06/17 03:01:33;;;;;;;5.65;3.28;;;22.40;53.70;;;;;;5009263;28;20041;-72
2022/06/17 03:04:15;;;;;;;4.82;2.50;;;22.40;53.70;;;;;;5008884;28;20085;-71
2022/06/17 03:06:45;;;;;;;3.67;2.35;;;22.40;53.70;;;;;;5007694;28;20180;-72
2022/06/17 03:09:21;;;;;;;6.95;2.47;;;22.40;53.70;;;;;;4990453;28;20053;-71
2022/06/17 03:11:53;;;;;;;4.20;2.25;;;22.40;53.60;;;;;;5010017;28;20176;-71
2022/06/17 03:14:20;;;;;;;5.65;2.40;;;22.40;53.60;;;;;;5008602;28;20037;-72
2022/06/17 03:16:49;;;;;;;7.10;2.65;;;22.40;53.50;;;;;;5009360;28;20093;-71
2022/06/17 03:19:15;;;;;;;4.85;2.60;;;22.40;53.50;;;;;;5007843;28;20372;-71
2022/06/17 03:21:43;;;;;;;4.68;2.20;;;22.40;53.50;;;;;;5008658;28;20034;-72
2022/06/17 03:24:18;;;;;;;5.50;2.13;;;22.40;53.50;;;;;;5010890;28;20021;-71
2022/06/17 03:26:52;;;;;;;5.75;2.17;;;22.40;53.50;;;;;;5009117;28;20029;-72
2022/06/17 03:29:20;;;;;;;5.18;2.33;;;22.40;53.40;;;;;;5007339;28;20029;-71
2022/06/17 03:31:57;;;;;;;5.25;2.42;;;22.40;53.40;;;;;;5005568;28;21153;-71
2022/06/17 03:34:31;;;;;;;5.38;2.42;;;22.40;53.40;;;;;;5006581;28;20113;-72
2022/06/17 03:37:03;;;;;;;3.88;2.28;;;22.40;53.50;;;;;;5009358;28;20033;-72
2022/06/17 03:39:41;;;;;;;3.63;1.85;;;22.40;53.30;;;;;;5008535;28;20062;-71
2022/06/17 03:42:13;;;;;;;6.63;2.45;;;22.40;53.50;;;;;;5010569;28;20025;-71
2022/06/17 03:44:47;;;;;;;3.65;1.90;;;22.40;53.40;;;;;;4992242;28;20376;-71
2022/06/17 03:47:40;;;;;;;4.47;2.15;;;22.40;53.40;;;;;;5006362;28;20017;-72
2022/06/17 03:50:15;;;;;;;5.13;1.83;;;22.40;53.30;;;;;;5008578;28;20022;-71
2022/06/17 03:52:48;;;;;;;4.25;2.00;;;22.40;53.20;;;;;;4992608;28;20033;-71
2022/06/17 03:55:19;;;;;;;3.83;1.80;;;22.40;53.30;;;;;;4992216;28;20441;-72
2022/06/17 03:57:49;;;;;;;4.72;1.92;;;22.40;53.40;;;;;;5010292;28;20493;-72
2022/06/17 04:00:34;;;;;;;4.57;1.60;;;22.40;53.30;;;;;;5008950;28;20101;-72
2022/06/17 04:03:04;;;;;;;4.93;2.00;;;22.40;53.20;;;;;;5017345;28;20026;-72
2022/06/17 04:05:31;;;;;;;5.35;2.22;;;22.40;53.40;;;;;;5016250;28;20034;-72
2022/06/17 04:07:57;;;;;;;4.20;1.90;;;22.40;53.40;;;;;;5018437;28;20022;-71
2022/06/17 04:10:26;;;;;;;5.03;2.03;;;22.40;53.40;;;;;;5015680;28;20037;-72
2022/06/17 04:12:56;;;;;;;4.82;2.13;;;22.40;53.40;;;;;;5014655;28;20013;-72
2022/06/17 04:15:36;;;;;;;4.43;2.22;;;22.40;53.40;;;;;;5016430;28;20081;-72
2022/06/17 04:18:03;;;;;;;3.85;2.15;;;22.40;53.40;;;;;;5016385;28;20018;-72
2022/06/17 04:20:38;;;;;;;5.70;2.08;;;22.40;53.30;;;;;;5017027;28;20040;-73
2022/06/17 04:23:15;;;;;;;4.75;1.92;;;22.40;53.40;;;;;;5021057;28;20030;-72
2022/06/17 04:26:22;;;;;;;4.22;2.13;;;22.40;53.50;;;;;;5018903;28;20104;-72
2022/06/17 04:28:52;;;;;;;3.63;2.05;;;22.40;53.40;;;;;;5016411;28;20072;-72
2022/06/17 04:31:24;;;;;;;4.88;2.05;;;22.40;53.40;;;;;;5020146;28;20080;-72
2022/06/17 04:34:04;;;;;;;2.92;1.70;;;22.40;53.40;;;;;;5004949;28;20025;-72
2022/06/17 04:36:35;;;;;;;6.18;2.20;;;22.40;53.40;;;;;;5021036;28;20036;-72
2022/06/17 04:39:33;;;;;;;7.32;2.13;;;22.40;53.40;;;;;;5017877;28;20161;-72
2022/06/17 04:42:33;;;;;;;8.07;1.98;;;22.40;53.30;;;;;;5012771;28;20417;-72
2022/06/17 04:44:59;;;;;;;4.68;1.88;;;22.40;53.40;;;;;;5018521;28;20105;-71
2022/06/17 04:47:26;;;;;;;3.83;1.80;;;22.40;53.20;;;;;;5020306;28;20029;-71
2022/06/17 04:49:59;;;;;;;3.87;1.80;;;22.40;53.30;;;;;;5003789;28;20040;-72
2022/06/17 04:52:41;;;;;;;4.93;2.17;;;22.40;53.30;;;;;;5021898;28;20459;-71
2022/06/17 04:55:32;;;;;;;3.95;2.10;;;22.40;53.30;;;;;;5020897;28;20029;-71
2022/06/17 04:58:20;;;;;;;4.20;1.70;;;22.40;53.30;;;;;;5019347;28;20542;-71
2022/06/17 05:00:54;;;;;;;4.60;1.77;;;22.40;53.30;;;;;;5020909;28;20080;-71
2022/06/17 05:03:29;;;;;;;7.43;1.75;;;22.40;53.40;;;;;;5021582;28;20386;-71
2022/06/17 05:06:11;;;;;;;5.25;1.98;;;22.40;53.40;;;;;;5017234;28;20030;-71
2022/06/17 05:08:43;;;;;;;4.53;1.95;;;22.40;53.30;;;;;;5017196;28;20894;-71
2022/06/17 05:11:32;;;;;;;4.50;2.05;;;22.40;53.50;;;;;;5019021;28;20030;-71
2022/06/17 05:14:02;;;;;;;3.67;1.90;;;22.40;53.40;;;;;;5018808;28;20381;-71
2022/06/17 05:16:29;;;;;;;6.80;1.73;;;22.40;53.40;;;;;;5019312;28;20041;-71
2022/06/17 05:18:55;;;;;;;4.90;2.17;;;22.40;53.40;;;;;;5018772;28;20078;-72
2022/06/17 05:21:24;;;;;;;4.05;1.63;;;22.40;53.40;;;;;;5036362;28;20119;-71
2022/06/17 05:23:59;;;;;;;4.78;2.08;;;22.40;53.40;;;;;;5018602;28;20037;-71
2022/06/17 05:26:27;;;;;;;3.30;1.90;;;22.40;53.50;;;;;;5004179;28;20057;-72
2022/06/17 05:28:54;;;;;;;3.92;1.90;;;22.40;53.50;;;;;;5018607;28;20029;-72
2022/06/17 05:31:26;;;;;;;3.67;1.85;;;22.40;53.50;;;;;;5018292;28;20029;-71
2022/06/17 05:33:59;;;;;;;5.20;1.90;;;22.40;53.50;;;;;;5013333;28;20057;-72
2022/06/17 05:36:25;;;;;;;5.00;1.92;;;22.40;53.80;;;;;;5019566;28;20119;-72
2022/06/17 05:38:51;;;;;;;5.43;1.90;;;22.40;53.50;;;;;;5018315;28;20128;-72
2022/06/17 05:41:20;;;;;;;6.68;1.70;;;22.40;53.50;;;;;;5018733;28;20317;-72
2022/06/17 05:43:49;;;;;;;4.32;1.60;;;22.40;53.50;;;;;;5001428;28;20061;-71
2022/06/17 05:46:31;;;;;;;4.72;1.88;;;22.40;53.50;;;;;;5002446;28;20113;-72
2022/06/17 05:49:07;;;;;;;5.57;1.95;;;22.40;53.50;;;;;;5016790;28;20109;-72
2022/06/17 05:51:48;;;;;;;3.40;1.67;;;22.40;53.50;;;;;;5019161;28;20026;-72
2022/06/17 05:54:31;;;;;;;3.58;1.75;;;22.40;53.50;;;;;;5019421;28;20040;-73
2022/06/17 05:57:07;;;;;;;6.53;2.00;;;22.40;53.50;;;;;;5017267;28;20030;-73
2022/06/17 05:59:33;;;;;;;3.78;2.00;;;22.40;53.50;;;;;;5015478;28;20038;-72
2022/06/17 06:01:59;;;;;;;5.10;2.05;;;22.40;53.50;;;;;;5016992;28;20087;-72
2022/06/17 06:04:43;;;;;;;5.45;2.03;;;22.40;53.60;;;;;;5018102;28;20035;-72
2022/06/17 06:07:09;;;;;;;3.05;1.77;;;22.40;53.60;;;;;;5001540;28;20454;-72
2022/06/17 06:09:38;;;;;;;4.18;1.88;;;22.40;53.60;;;;;;5016812;28;20025;-72
2022/06/17 06:12:05;;;;;;;7.85;2.20;;;22.40;53.70;;;;;;5017819;28;20390;-72
2022/06/17 06:14:31;;;;;;;4.10;1.75;;;22.40;53.70;;;;;;5015448;28;20441;-72
2022/06/17 06:16:58;;;;;;;3.50;1.83;;;22.40;53.70;;;;;;5017363;28;20037;-72
2022/06/17 06:19:24;;;;;;;5.22;2.20;;;22.40;53.70;;;;;;5017646;28;20033;-73
2022/06/17 06:21:50;;;;;;;3.13;1.55;;;22.40;53.80;;;;;;5018719;28;20032;-72
2022/06/17 06:24:15;;;;;;;4.45;2.28;;;22.40;53.80;;;;;;5017686;28;20109;-72
2022/06/17 06:26:41;;;;;;;3.70;1.83;;;22.40;53.90;;;;;;5015927;28;20126;-72
2022/06/17 06:29:17;;;;;;;7.22;1.95;;;22.40;53.90;;;;;;5012622;28;20032;-72
2022/06/17 06:31:44;;;;;;;3.20;1.65;;;22.40;53.90;;;;;;5017839;28;20026;-72
2022/06/17 06:34:20;;;;;;;4.78;1.83;;;22.40;53.90;;;;;;5019034;28;20398;-72
2022/06/17 06:36:46;;;;;;;2.50;1.65;;;22.40;53.90;;;;;;5019901;28;20025;-73
2022/06/17 06:39:13;;;;;;;4.53;1.83;;;22.40;53.90;;;;;;5018104;28;20075;-72
2022/06/17 06:41:39;;;;;;;6.32;1.80;;;22.40;53.90;;;;;;5017350;28;20034;-72
2022/06/17 06:44:06;;;;;;;5.30;1.77;;;22.40;53.90;;;;;;5009410;28;20026;-72
2022/06/17 06:46:50;;;;;;;4.00;1.92;;;22.50;53.90;;;;;;5016455;28;20052;-71
2022/06/17 06:49:29;;;;;;;3.92;1.63;;;22.50;54.00;;;;;;5009029;28;20026;-72
2022/06/17 06:51:55;;;;;;;6.20;1.80;;;22.50;54.00;;;;;;5017100;28;20029;-72
2022/06/17 06:54:21;;;;;;;6.57;2.47;;;22.50;54.20;;;;;;5008233;28;20022;-72
2022/06/17 06:56:46;;;;;;;12.73;2.30;;;22.50;54.20;;;;;;5009923;28;20029;-72
2022/06/17 06:59:13;;;;;;;9.73;2.60;;;22.50;54.30;;;;;;5025748;28;20500;-72
2022/06/17 07:01:39;;;;;;;9.68;2.60;;;22.50;54.30;;;;;;5014801;23;20042;-75
2022/06/17 07:04:05;;;;;;;6.90;2.28;;;22.50;54.40;;;;;;4993367;28;20045;-75
2022/06/17 07:06:34;;;;;;;6.82;2.22;;;22.50;54.50;;;;;;5018691;28;20105;-76
2022/06/17 07:09:00;;;;;;;11.38;2.53;;;22.50;55.00;;;;;;4991868;28;20390;-75
2022/06/17 07:11:26;;;;;;;7.15;2.25;;;22.60;56.20;;;;;;5012897;28;20029;-75
2022/06/17 07:13:52;;;;;;;7.20;2.95;;;22.60;56.40;;;;;;5029729;28;20111;-75
2022/06/17 07:16:18;;;;;;;11.23;3.03;;;22.60;56.80;;;;;;5030895;28;20530;-75
2022/06/17 07:18:43;;;;;;;10.27;3.35;;;22.60;57.10;;;;;;5011128;28;20505;-75
2022/06/17 07:21:12;;;;;;;14.43;3.10;;;22.70;57.50;;;;;;5024664;28;20033;-75
2022/06/17 07:23:41;;;;;;;10.27;2.53;;;22.70;56.50;;;;;;5029694;28;20030;-75
2022/06/17 07:26:12;;;;;;;5.63;2.35;;;22.70;57.20;;;;;;5029449;28;20394;-75
2022/06/17 07:28:37;;;;;;;11.88;3.10;;;22.70;56.90;;;;;;5027059;28;20467;-77
2022/06/17 07:31:03;;;;;;;12.80;3.25;;;22.70;56.40;;;;;;5028071;28;20121;-76
2022/06/17 07:33:31;;;;;;;11.18;2.90;;;22.60;56.40;;;;;;5028342;28;20033;-76
2022/06/17 07:36:01;;;;;;;10.38;2.85;;;22.60;56.90;;;;;;5026582;28;20041;-76
2022/06/17 07:41:17;;;;;;;17.80;3.73;;;22.60;56.70;;;;;;5028576;28;20163;-76
2022/06/17 07:43:43;;;;;;;7.97;3.15;;;22.70;56.70;;;;;;5028542;28;20029;-77
2022/06/17 07:46:10;;;;;;;11.43;3.70;;;22.70;56.60;;;;;;5009511;28;20021;-76
2022/06/17 07:48:38;;;;;;;13.60;3.30;;;22.70;56.50;;;;;;5028915;28;20112;-77
2022/06/17 07:51:05;;;;;;;10.45;3.20;;;22.70;56.70;;;;;;5026357;28;20465;-76
2022/06/17 07:53:34;;;;;;;20.88;3.85;;;22.70;56.70;;;;;;5028632;28;20539;-75
2022/06/17 07:56:02;;;;;;;11.43;4.25;;;22.80;57.00;;;;;;5031129;28;20036;-76
2022/06/17 07:58:28;;;;;;;24.42;4.60;;;22.80;57.00;;;;;;5031244;28;20033;-78
2022/06/17 08:00:55;;;;;;;12.05;3.17;;;22.80;57.00;;;;;;5034217;28;20493;-77
2022/06/17 08:03:21;;;;;;;16.20;4.53;;;22.80;56.40;;;;;;5032827;28;20033;-77
2022/06/17 08:05:51;;;;;;;10.88;3.58;;;22.70;56.60;;;;;;5033344;28;20035;-76
2022/06/17 08:08:21;;;;;;;12.00;4.30;;;22.70;56.30;;;;;;5033034;28;20378;-76
2022/06/17 08:10:55;;;;;;;16.98;4.95;;;22.70;56.30;;;;;;5033826;28;20026;-76
2022/06/17 08:13:22;;;;;;;23.88;4.72;;;22.70;56.10;;;;;;5028679;28;20417;-80
2022/06/17 08:15:51;;;;;;;16.05;4.75;;;22.80;55.90;;;;;;5033839;28;20032;-73
2022/06/17 08:18:17;;;;;;;12.82;4.80;;;22.80;55.50;;;;;;5032510;28;20116;-83
2022/06/17 08:20:43;;;;;;;17.33;4.85;;;22.80;55.30;;;;;;5033267;28;20132;-83
2022/06/17 08:23:09;;;;;;;13.73;4.93;;;22.80;55.30;;;;;;5015998;28;20042;-82
2022/06/17 08:25:36;;;;;;;13.55;4.78;;;22.80;55.10;;;;;;5017539;28;20083;-79
2022/06/17 08:28:07;;;;;;;13.82;5.10;;;22.80;55.10;;;;;;5033307;28;20025;-82
2022/06/17 08:30:39;;;;;;;15.60;4.55;;;22.80;54.90;;;;;;5033763;28;20031;-80
2022/06/17 08:33:05;;;;;;;19.85;5.35;;;22.80;54.70;;;;;;5029565;28;20520;-81
2022/06/17 08:35:35;;;;;;;15.18;4.72;;;22.80;54.60;;;;;;5012206;28;20449;-82
2022/06/17 08:38:02;;;;;;;;;;;22.80;54.60;;;;;;5029655;28;20021;-79
2022/06/17 08:40:50;;;;;;;14.68;4.20;;;22.90;55.10;;;;;;5029637;28;19955;-79
2022/06/17 08:43:24;;;;;;;27.23;4.90;;;22.90;54.50;;;;;;5029005;28;20025;-79
2022/06/17 08:46:24;;;;;;;28.50;5.82;;;22.90;54.50;;;;;;5029266;28;20017;-81
2022/06/17 08:49:13;;;;;;;;;;;22.90;54.50;;;;;;5029541;28;20017;-79
2022/06/17 08:52:29;;;;;;;35.20;6.03;;;22.90;54.60;;;;;;5013565;28;19909;-79
2022/06/17 08:55:24;;;;;;;29.27;6.18;;;22.90;54.70;;;;;;5021999;28;20053;-80
2022/06/17 08:58:08;;;;;;;30.00;6.88;;;22.90;54.90;;;;;;5029001;28;20079;-72
2022/06/17 09:01:19;;;;;;;4.93;1.90;;;22.90;55.40;;;;;;5027999;28;20410;-72
2022/06/17 09:04:09;;;;;;;9.10;2.60;;;22.50;45.00;;;;;;5024329;28;20037;-71
2022/06/17 09:06:52;;;;;;;10.68;2.70;;;22.30;47.80;;;;;;5024515;28;20402;-72
2022/06/17 09:09:32;;;;;;;3.85;1.40;;;22.30;48.10;;;;;;5027770;28;20026;-73
2022/06/17 09:12:19;;;;;;;;;;;22.00;42.90;;;;;;5030958;28;20037;-72
2022/06/17 09:15:06;;;;;;;4.18;1.67;;;22.00;45.50;;;;;;5028924;28;19916;-72
2022/06/17 09:17:38;;;;;;;6.25;2.45;;;22.00;44.60;;;;;;5012114;28;20506;-72
2022/06/17 09:20:07;;;;;;;4.97;1.77;;;22.10;45.40;;;;;;5029262;28;20116;-73
2022/06/17 09:22:45;;;;;;;6.38;1.80;;;22.30;46.80;;;;;;4995836;28;20064;-73
2022/06/17 09:25:17;;;;;;;4.68;1.80;;;22.40;47.10;;;;;;5010567;28;20048;-73
2022/06/17 09:27:49;;;;;;;5.97;2.30;;;22.60;47.20;;;;;;5029989;28;20037;-73
2022/06/17 09:30:22;;;;;;;6.80;2.08;;;22.70;47.10;;;;;;5027739;28;20390;-72
2022/06/17 09:33:09;;;;;;;5.88;1.80;;;22.80;47.20;;;;;;5029183;28;20039;-72
2022/06/17 09:35:48;;;;;;;10.82;2.35;;;22.80;47.00;;;;;;5029210;28;20025;-72
2022/06/17 09:38:37;;;;;;;5.57;1.90;;;22.90;46.60;;;;;;5028101;28;20025;-71
2022/06/17 09:41:46;;;;;;;6.43;1.77;;;23.00;46.30;;;;;;5030595;28;20391;-72
2022/06/17 09:44:22;;;;;;;3.78;1.75;;;23.00;46.00;;;;;;5027771;28;20116;-71
2022/06/17 09:46:53;;;;;;;10.25;2.75;;;23.10;46.80;;;;;;5029210;28;20761;-70
2022/06/17 09:49:47;;;;;;;9.40;2.80;;;23.10;48.80;;;;;;5028100;28;20025;-73
2022/06/17 09:52:21;;;;;;;9.77;2.65;;;23.20;49.80;;;;;;4994015;28;20030;-74
2022/06/17 09:54:56;;;;;;;9.57;3.10;;;23.20;50.40;;;;;;5027037;28;20033;-74
2022/06/17 09:57:46;;;;;;;8.43;3.38;;;23.20;50.40;;;;;;5027473;28;20017;-75
2022/06/17 10:00:19;;;;;;;10.32;4.53;;;23.30;50.90;;;;;;5028701;28;20457;-78
2022/06/17 10:02:57;;;;;;;18.08;4.50;;;23.30;50.80;;;;;;5024988;28;20486;-77
2022/06/17 10:05:47;;;;;;;8.13;3.97;;;23.30;52.20;;;;;;5031220;28;20502;-76
2022/06/17 10:08:22;;;;;;;;;;;23.30;49.60;;;;;;5029122;28;20053;-77
2022/06/17 10:11:13;;;;;;;10.75;3.63;;;23.30;50.10;;;;;;5028586;28;19913;-76
2022/06/17 10:13:59;;;;;;;6.40;3.00;;;23.30;49.80;;;;;;5028363;28;20040;-76
2022/06/17 10:19:59;;;;;;;12.95;4.13;;;23.20;50.80;;;;;;5024691;28;20946;-76
2022/06/17 10:23:03;;;;;;;9.98;3.17;;;23.30;50.90;;;;;;5022729;28;20128;-75
2022/06/17 10:25:41;;;;;;;8.05;2.85;;;23.30;48.60;;;;;;5024613;28;20037;-77
2022/06/17 10:28:29;;;;;;;5.10;2.38;;;23.30;50.90;;;;;;5004302;28;20029;-78
2022/06/17 10:30:59;;;;;;;5.60;1.75;;;23.30;47.20;;;;;;5026280;28;20029;-77
2022/06/17 10:33:28;;;;;;;9.65;2.10;;;23.40;45.40;;;;;;5028843;28;20025;-77
2022/06/17 10:35:54;;;;;;;5.20;2.33;;;23.30;46.90;;;;;;5028285;28;20033;-75
2022/06/17 10:38:28;;;;;;;6.80;2.10;;;23.10;47.30;;;;;;5022523;28;20021;-79
2022/06/17 10:40:54;;;;;;;4.40;1.95;;;23.10;46.10;;;;;;5024822;28;20093;-80
2022/06/17 10:43:32;;;;;;;4.13;1.35;;;22.90;43.70;;;;;;5024751;28;20025;-84
2022/06/17 10:45:59;;;;;;;5.38;2.22;;;22.70;43.30;;;;;;5002846;28;20033;-79
2022/06/17 10:48:39;;;;;;;6.97;1.80;;;22.60;46.40;;;;;;5024080;28;20026;-81
2022/06/17 10:51:06;;;;;;;5.32;2.30;;;22.80;48.10;;;;;;5025131;28;20018;-82
2022/06/17 10:53:57;;;;;;;9.40;2.45;;;22.90;48.30;;;;;;5029079;28;20545;-80
2022/06/17 10:56:49;;;;;;;4.65;1.63;;;22.90;47.50;;;;;;5027076;28;20060;-80
2022/06/17 10:59:28;;;;;;;3.85;1.60;;;22.90;47.40;;;;;;5027005;28;20086;-78
2022/06/17 11:01:56;;;;;;;7.53;1.80;;;23.10;46.60;;;;;;4991063;28;20044;-80
2022/06/17 11:04:34;;;;;;;5.97;1.50;;;23.10;47.80;;;;;;5028585;28;20391;-80
2022/06/17 11:07:05;;;;;;;6.60;1.80;;;23.10;47.40;;;;;;5011301;28;20029;-79
2022/06/17 11:09:37;;;;;;;4.20;1.75;;;23.10;48.10;;;;;;5026937;28;20109;-78
2022/06/17 11:12:16;;;;;;;3.60;1.65;;;23.10;49.00;;;;;;5012834;28;20510;-79
2022/06/17 11:14:45;;;;;;;3.57;1.40;;;23.10;47.00;;;;;;5013720;28;20029;-79
2022/06/17 11:17:13;;;;;;;4.65;2.08;;;23.10;46.40;;;;;;5031427;28;20030;-78
2022/06/17 11:19:44;;;;;;;4.32;1.67;;;23.10;46.90;;;;;;5013404;28;20033;-78
2022/06/17 11:22:34;;;;;;;4.18;1.80;;;23.20;47.10;;;;;;5013673;28;20029;-80
2022/06/17 11:25:18;;;;;;;3.78;1.92;;;23.20;46.50;;;;;;5011792;28;20497;-79
2022/06/17 11:27:53;;;;;;;3.92;2.10;;;23.20;46.90;;;;;;5028732;28;20025;-79
2022/06/17 11:30:28;;;;;;;6.70;2.05;;;23.20;47.00;;;;;;5034741;28;20472;-78
2022/06/17 11:32:56;;;;;;;6.63;2.00;;;23.20;47.30;;;;;;5003882;28;20075;-78
2022/06/17 11:35:39;;;;;;;4.68;1.90;;;23.20;46.90;;;;;;5036633;28;20128;-79
2022/06/17 11:38:16;;;;;;;5.65;1.52;;;23.20;46.80;;;;;;5036980;28;20032;-78
2022/06/17 11:40:51;;;;;;;6.72;1.85;;;23.20;46.30;;;;;;5035220;28;20029;-78
2022/06/17 11:43:35;;;;;;;3.75;1.20;;;23.20;46.50;;;;;;5029586;28;20025;-78
2022/06/17 11:46:16;;;;;;;17.50;2.25;;;23.20;46.40;;;;;;5020092;28;20021;-78
2022/06/17 11:48:49;;;;;;;13.15;2.10;;;23.20;47.20;;;;;;5037829;28;20024;-77
2022/06/17 11:51:24;;;;;;;9.05;2.00;;;23.20;47.10;;;;;;5003598;28;20461;-77
2022/06/17 11:53:57;;;;;;;10.30;2.08;;;23.20;46.20;;;;;;5036290;28;20091;-77
2022/06/17 11:56:36;;;;;;;3.88;1.52;;;23.20;46.10;;;;;;5036439;28;20462;-77
2022/06/17 11:59:23;;;;;;;4.80;1.38;;;23.10;46.80;;;;;;5035292;28;20037;-77
2022/06/17 12:02:03;;;;;;;5.95;1.40;;;23.10;45.40;;;;;;5035035;28;20034;-77
2022/06/17 12:04:51;;;;;;;7.13;1.50;;;23.10;44.60;;;;;;5036269;28;20025;-77
2022/06/17 12:07:38;;;;;;;2.95;1.40;;;23.10;46.00;;;;;;5017340;28;20498;-77
2022/06/17 12:10:29;;;;;;;3.92;1.10;;;23.10;44.50;;;;;;5029476;28;20044;-78
2022/06/17 12:13:01;;;;;;;7.78;1.50;;;23.40;43.40;;;;;;5031677;28;20025;-77
2022/06/17 12:15:31;;;;;;;3.70;1.23;;;23.30;43.70;;;;;;5035184;28;20037;-77
2022/06/17 12:17:59;;;;;;;6.45;1.25;;;23.20;43.60;;;;;;5034320;28;20037;-77
2022/06/17 12:20:31;;;;;;;4.07;1.70;;;23.20;44.00;;;;;;5035766;28;20033;-77
2022/06/17 12:23:09;;;;;;;4.15;1.23;;;23.20;44.10;;;;;;5019825;28;20067;-77
2022/06/17 12:25:51;;;;;;;5.72;1.30;;;23.20;44.20;;;;;;5017986;28;20025;-77
2022/06/17 12:28:32;;;;;;;3.20;1.40;;;23.20;44.30;;;;;;5028372;28;20116;-76
2022/06/17 12:31:27;;;;;;;3.38;1.17;;;23.20;44.20;;;;;;5037077;28;20494;-77
2022/06/17 12:34:06;;;;;;;3.80;1.60;;;23.20;44.20;;;;;;5019764;28;20037;-77
2022/06/17 12:36:49;;;;;;;2.90;1.60;;;23.10;44.60;;;;;;5031510;28;20029;-76
2022/06/17 12:39:41;;;;;;;3.50;1.55;;;23.20;44.60;;;;;;5033286;28;20120;-76
2022/06/17 12:42:17;;;;;;;3.92;1.90;;;23.20;45.00;;;;;;5031335;28;20429;-76
2022/06/17 12:44:49;;;;;;;3.17;1.65;;;23.20;45.50;;;;;;5033774;28;20443;-75
2022/06/17 12:47:42;;;;;;;6.72;1.90;;;23.20;45.50;;;;;;5033208;28;20030;-75
2022/06/17 12:53:30;;;;;;;3.45;1.60;;;23.20;43.90;;;;;;5032337;28;20116;-76
2022/06/17 12:56:18;;;;;;;3.28;1.30;;;23.20;44.00;;;;;;5032785;28;20041;-75
2022/06/17 12:59:00;;;;;;;6.22;1.60;;;23.20;43.70;;;;;;5031783;28;20025;-75
2022/06/17 13:01:36;;;;;;;3.85;1.70;;;23.20;45.60;;;;;;5034067;28;20087;-75
2022/06/17 13:04:24;;;;;;;7.38;1.77;;;23.20;44.80;;;;;;5013015;23;20149;-73
2022/06/17 13:07:18;;;;;;;6.65;1.63;;;23.20;45.10;;;;;;4991038;28;20106;-73
2022/06/17 13:13:32;;;;;;;7.25;1.63;;;23.20;46.20;;;;;;4997854;28;20406;-73
2022/06/17 13:16:28;;;;;;;2.75;1.35;;;23.30;45.60;;;;;;5013494;28;20030;-74
2022/06/17 13:19:22;;;;;;;4.35;1.42;;;23.20;44.40;;;;;;5012295;28;20034;-74
2022/06/17 13:21:54;;;;;;;6.22;1.83;;;23.20;45.20;;;;;;5011530;28;20060;-73
2022/06/17 13:25:02;;;;;;;16.50;6.57;;;23.20;45.80;;;;;;5011685;28;20041;-72
2022/06/17 13:27:48;;;;;;;14.75;7.00;;;23.20;45.40;;;;;;5011346;28;20060;-74
2022/06/17 13:30:19;;;;;;;14.70;6.22;;;23.20;45.40;;;;;;5013045;28;20153;-73
2022/06/17 13:32:57;;;;;;;15.45;6.22;;;23.20;45.90;;;;;;5011893;28;20037;-72
2022/06/17 13:35:44;;;;;;;14.38;4.93;;;23.20;46.40;;;;;;4995326;28;20120;-73
2022/06/17 13:38:15;;;;;;;12.43;4.97;;;23.10;47.10;;;;;;5010359;28;20037;-72
2022/06/17 13:40:51;;;;;;;11.52;4.55;;;23.10;47.60;;;;;;5013169;28;20108;-72